sensor_id;sensor_type;location;lat;lon;timestamp;P1;durP1;ratioP1;P2;durP2;ratioP2
3633;SDS011;1833;42.718;23.270;2023-08-21T00:02:19;34.40;;;31.60;;
3633;SDS011;1833;42.718;23.270;2023-08-21T00:04:46;35.07;;;32.17;;
3633;SDS011;1833;42.718;23.270;2023-08-21T00:07:14;35.93;;;32.43;;
3633;SDS011;1833;42.718;23.270;2023-08-21T00:09:42;34.90;;;32.00;;
3633;SDS011;1833;42.718;23.270;2023-08-21T00:12:09;34.90;;;31.90;;
3633;SDS011;1833;42.718;23.270;2023-08-21T00:14:36;35.10;;;32.10;;
3633;SDS011;1833;42.718;23.270;2023-08-21T00:17:03;34.70;;;31.80;;
3633;SDS011;1833;42.718;23.270;2023-08-21T00:19:31;35.07;;;31.97;;
3633;SDS011;1833;42.718;23.270;2023-08-21T00:21:58;34.40;;;31.60;;
3633;SDS011;1833;42.718;23.270;2023-08-21T00:24:27;34.00;;;31.20;;
3633;SDS011;1833;42.718;23.270;2023-08-21T00:26:54;35.77;;;32.00;;
3633;SDS011;1833;42.718;23.270;2023-08-21T00:29:21;35.03;;;31.80;;
3633;SDS011;1833;42.718;23.270;2023-08-21T00:31:48;34.83;;;32.13;;
3633;SDS011;1833;42.718;23.270;2023-08-21T00:34:15;34.97;;;32.17;;
3633;SDS011;1833;42.718;23.270;2023-08-21T00:36:45;33.70;;;30.90;;
3633;SDS011;1833;42.718;23.270;2023-08-21T00:39:12;35.07;;;32.07;;
3633;SDS011;1833;42.718;23.270;2023-08-21T00:41:41;34.53;;;31.60;;
3633;SDS011;1833;42.718;23.270;2023-08-21T00:44:08;35.10;;;32.30;;
3633;SDS011;1833;42.718;23.270;2023-08-21T00:46:36;34.93;;;31.73;;
3633;SDS011;1833;42.718;23.270;2023-08-21T00:49:03;35.73;;;32.53;;
3633;SDS011;1833;42.718;23.270;2023-08-21T00:51:31;36.30;;;33.30;;
3633;SDS011;1833;42.718;23.270;2023-08-21T00:53:58;33.90;;;31.13;;
3633;SDS011;1833;42.718;23.270;2023-08-21T00:56:25;34.93;;;32.00;;
3633;SDS011;1833;42.718;23.270;2023-08-21T00:58:54;34.33;;;30.93;;
3633;SDS011;1833;42.718;23.270;2023-08-21T01:01:21;34.87;;;31.93;;
3633;SDS011;1833;42.718;23.270;2023-08-21T01:03:50;35.97;;;32.63;;
3633;SDS011;1833;42.718;23.270;2023-08-21T01:06:18;34.30;;;31.20;;
3633;SDS011;1833;42.718;23.270;2023-08-21T01:08:47;34.10;;;31.00;;
3633;SDS011;1833;42.718;23.270;2023-08-21T01:11:18;34.43;;;31.33;;
3633;SDS011;1833;42.718;23.270;2023-08-21T01:13:52;34.73;;;31.37;;
3633;SDS011;1833;42.718;23.270;2023-08-21T01:16:23;34.30;;;31.20;;
3633;SDS011;1833;42.718;23.270;2023-08-21T01:18:51;33.70;;;30.90;;
3633;SDS011;1833;42.718;23.270;2023-08-21T01:21:19;34.53;;;31.53;;
3633;SDS011;1833;42.718;23.270;2023-08-21T01:23:48;33.73;;;30.97;;
3633;SDS011;1833;42.718;23.270;2023-08-21T01:26:15;33.40;;;30.70;;
3633;SDS011;1833;42.718;23.270;2023-08-21T01:28:42;33.57;;;30.77;;
3633;SDS011;1833;42.718;23.270;2023-08-21T01:31:11;34.37;;;31.40;;
3633;SDS011;1833;42.718;23.270;2023-08-21T01:33:40;34.13;;;31.30;;
3633;SDS011;1833;42.718;23.270;2023-08-21T01:36:09;35.17;;;32.20;;
3633;SDS011;1833;42.718;23.270;2023-08-21T01:38:36;35.73;;;32.40;;
3633;SDS011;1833;42.718;23.270;2023-08-21T01:41:05;34.50;;;31.57;;
3633;SDS011;1833;42.718;23.270;2023-08-21T01:43:32;35.80;;;32.30;;
3633;SDS011;1833;42.718;23.270;2023-08-21T01:46:00;34.77;;;31.97;;
3633;SDS011;1833;42.718;23.270;2023-08-21T01:48:28;34.57;;;31.90;;
3633;SDS011;1833;42.718;23.270;2023-08-21T01:50:55;33.67;;;31.00;;
3633;SDS011;1833;42.718;23.270;2023-08-21T01:53:23;34.70;;;31.47;;
3633;SDS011;1833;42.718;23.270;2023-08-21T01:55:50;34.30;;;31.50;;
3633;SDS011;1833;42.718;23.270;2023-08-21T01:58:18;33.40;;;30.70;;
3633;SDS011;1833;42.718;23.270;2023-08-21T02:00:46;35.10;;;31.97;;
3633;SDS011;1833;42.718;23.270;2023-08-21T02:03:13;34.23;;;31.47;;
3633;SDS011;1833;42.718;23.270;2023-08-21T02:05:41;34.20;;;31.43;;
3633;SDS011;1833;42.718;23.270;2023-08-21T02:08:09;34.80;;;31.73;;
3633;SDS011;1833;42.718;23.270;2023-08-21T02:10:37;34.73;;;31.73;;
3633;SDS011;1833;42.718;23.270;2023-08-21T02:13:04;36.57;;;33.13;;
3633;SDS011;1833;42.718;23.270;2023-08-21T02:15:32;35.80;;;32.80;;
3633;SDS011;1833;42.718;23.270;2023-08-21T02:18:00;36.53;;;33.60;;
3633;SDS011;1833;42.718;23.270;2023-08-21T02:20:27;37.67;;;34.13;;
3633;SDS011;1833;42.718;23.270;2023-08-21T02:22:54;35.73;;;32.90;;
3633;SDS011;1833;42.718;23.270;2023-08-21T02:25:21;36.90;;;34.00;;
3633;SDS011;1833;42.718;23.270;2023-08-21T02:27:49;36.50;;;33.50;;
3633;SDS011;1833;42.718;23.270;2023-08-21T02:30:16;37.57;;;34.13;;
3633;SDS011;1833;42.718;23.270;2023-08-21T02:32:45;37.30;;;34.37;;
3633;SDS011;1833;42.718;23.270;2023-08-21T02:35:12;38.90;;;34.63;;
3633;SDS011;1833;42.718;23.270;2023-08-21T02:37:39;35.87;;;32.60;;
3633;SDS011;1833;42.718;23.270;2023-08-21T02:40:07;35.67;;;32.53;;
3633;SDS011;1833;42.718;23.270;2023-08-21T02:42:34;35.27;;;32.57;;
3633;SDS011;1833;42.718;23.270;2023-08-21T02:45:02;37.40;;;34.33;;
3633;SDS011;1833;42.718;23.270;2023-08-21T02:47:33;40.00;;;36.70;;
3633;SDS011;1833;42.718;23.270;2023-08-21T02:50:02;40.20;;;36.70;;
3633;SDS011;1833;42.718;23.270;2023-08-21T02:52:29;38.80;;;35.20;;
3633;SDS011;1833;42.718;23.270;2023-08-21T02:54:57;37.50;;;34.30;;
3633;SDS011;1833;42.718;23.270;2023-08-21T02:57:24;38.00;;;34.67;;
3633;SDS011;1833;42.718;23.270;2023-08-21T02:59:51;43.07;;;39.10;;
3633;SDS011;1833;42.718;23.270;2023-08-21T03:02:19;40.30;;;36.90;;
3633;SDS011;1833;42.718;23.270;2023-08-21T03:04:46;40.60;;;37.23;;
3633;SDS011;1833;42.718;23.270;2023-08-21T03:07:15;41.47;;;38.07;;
3633;SDS011;1833;42.718;23.270;2023-08-21T03:09:44;37.60;;;34.50;;
3633;SDS011;1833;42.718;23.270;2023-08-21T03:12:12;38.77;;;35.37;;
3633;SDS011;1833;42.718;23.270;2023-08-21T03:14:39;35.23;;;32.43;;
3633;SDS011;1833;42.718;23.270;2023-08-21T03:17:06;34.97;;;32.07;;
3633;SDS011;1833;42.718;23.270;2023-08-21T03:19:33;36.30;;;33.00;;
3633;SDS011;1833;42.718;23.270;2023-08-21T03:22:00;35.37;;;31.80;;
3633;SDS011;1833;42.718;23.270;2023-08-21T03:24:29;35.67;;;32.77;;
3633;SDS011;1833;42.718;23.270;2023-08-21T03:26:57;37.63;;;33.93;;
3633;SDS011;1833;42.718;23.270;2023-08-21T03:29:24;35.40;;;32.43;;
3633;SDS011;1833;42.718;23.270;2023-08-21T03:31:52;36.93;;;33.77;;
3633;SDS011;1833;42.718;23.270;2023-08-21T03:34:19;36.77;;;33.60;;
3633;SDS011;1833;42.718;23.270;2023-08-21T03:36:47;38.20;;;35.00;;
3633;SDS011;1833;42.718;23.270;2023-08-21T03:39:14;36.13;;;32.83;;
3633;SDS011;1833;42.718;23.270;2023-08-21T03:41:43;34.53;;;31.40;;
3633;SDS011;1833;42.718;23.270;2023-08-21T03:44:10;39.50;;;33.43;;
3633;SDS011;1833;42.718;23.270;2023-08-21T03:46:37;35.53;;;32.37;;
3633;SDS011;1833;42.718;23.270;2023-08-21T03:49:04;40.30;;;32.53;;
3633;SDS011;1833;42.718;23.270;2023-08-21T03:51:32;36.37;;;33.10;;
3633;SDS011;1833;42.718;23.270;2023-08-21T03:53:59;36.93;;;33.73;;
3633;SDS011;1833;42.718;23.270;2023-08-21T03:56:26;37.63;;;34.27;;
3633;SDS011;1833;42.718;23.270;2023-08-21T03:58:55;36.60;;;33.27;;
3633;SDS011;1833;42.718;23.270;2023-08-21T04:01:22;38.50;;;33.40;;
3633;SDS011;1833;42.718;23.270;2023-08-21T04:03:49;37.60;;;34.03;;
3633;SDS011;1833;42.718;23.270;2023-08-21T04:06:16;37.83;;;34.37;;
3633;SDS011;1833;42.718;23.270;2023-08-21T04:08:44;37.67;;;34.07;;
3633;SDS011;1833;42.718;23.270;2023-08-21T04:11:11;36.37;;;33.17;;
3633;SDS011;1833;42.718;23.270;2023-08-21T04:13:38;36.70;;;33.30;;
3633;SDS011;1833;42.718;23.270;2023-08-21T04:16:07;36.77;;;33.27;;
3633;SDS011;1833;42.718;23.270;2023-08-21T04:18:35;37.47;;;34.10;;
3633;SDS011;1833;42.718;23.270;2023-08-21T04:21:03;35.20;;;31.97;;
3633;SDS011;1833;42.718;23.270;2023-08-21T04:23:31;36.23;;;32.57;;
3633;SDS011;1833;42.718;23.270;2023-08-21T04:26:00;36.20;;;32.53;;
3633;SDS011;1833;42.718;23.270;2023-08-21T04:28:27;33.73;;;30.63;;
3633;SDS011;1833;42.718;23.270;2023-08-21T04:30:55;34.57;;;31.70;;
3633;SDS011;1833;42.718;23.270;2023-08-21T04:33:24;34.20;;;31.03;;
3633;SDS011;1833;42.718;23.270;2023-08-21T04:35:51;36.87;;;33.23;;
3633;SDS011;1833;42.718;23.270;2023-08-21T04:38:18;36.90;;;33.30;;
3633;SDS011;1833;42.718;23.270;2023-08-21T04:40:46;36.27;;;33.20;;
3633;SDS011;1833;42.718;23.270;2023-08-21T04:43:13;38.67;;;34.00;;
3633;SDS011;1833;42.718;23.270;2023-08-21T04:45:46;37.10;;;33.77;;
3633;SDS011;1833;42.718;23.270;2023-08-21T04:48:13;36.70;;;33.03;;
3633;SDS011;1833;42.718;23.270;2023-08-21T04:50:42;37.97;;;32.50;;
3633;SDS011;1833;42.718;23.270;2023-08-21T04:53:09;37.73;;;34.10;;
3633;SDS011;1833;42.718;23.270;2023-08-21T04:55:36;42.03;;;32.60;;
3633;SDS011;1833;42.718;23.270;2023-08-21T04:58:05;38.50;;;34.67;;
3633;SDS011;1833;42.718;23.270;2023-08-21T05:00:32;37.87;;;34.57;;
3633;SDS011;1833;42.718;23.270;2023-08-21T05:03:00;37.23;;;33.20;;
3633;SDS011;1833;42.718;23.270;2023-08-21T05:05:27;36.20;;;32.80;;
3633;SDS011;1833;42.718;23.270;2023-08-21T05:07:55;37.93;;;34.73;;
3633;SDS011;1833;42.718;23.270;2023-08-21T05:10:23;38.83;;;35.50;;
3633;SDS011;1833;42.718;23.270;2023-08-21T05:12:50;38.60;;;35.10;;
3633;SDS011;1833;42.718;23.270;2023-08-21T05:15:17;33.97;;;31.07;;
3633;SDS011;1833;42.718;23.270;2023-08-21T05:17:44;36.10;;;32.50;;
3633;SDS011;1833;42.718;23.270;2023-08-21T05:20:12;37.95;;;34.30;;
3633;SDS011;1833;42.718;23.270;2023-08-21T05:22:40;41.67;;;37.23;;
3633;SDS011;1833;42.718;23.270;2023-08-21T05:25:09;39.47;;;35.30;;
3633;SDS011;1833;42.718;23.270;2023-08-21T05:27:37;36.88;;;33.30;;
3633;SDS011;1833;42.718;23.270;2023-08-21T05:30:04;35.65;;;32.63;;
3633;SDS011;1833;42.718;23.270;2023-08-21T05:32:32;37.83;;;34.05;;
3633;SDS011;1833;42.718;23.270;2023-08-21T05:34:59;36.83;;;33.10;;
3633;SDS011;1833;42.718;23.270;2023-08-21T05:37:26;36.85;;;33.30;;
3633;SDS011;1833;42.718;23.270;2023-08-21T05:39:53;37.13;;;33.70;;
3633;SDS011;1833;42.718;23.270;2023-08-21T05:42:22;37.38;;;33.70;;
3633;SDS011;1833;42.718;23.270;2023-08-21T05:44:49;34.08;;;31.13;;
3633;SDS011;1833;42.718;23.270;2023-08-21T05:47:17;35.42;;;32.45;;
3633;SDS011;1833;42.718;23.270;2023-08-21T05:49:44;38.25;;;34.92;;
3633;SDS011;1833;42.718;23.270;2023-08-21T05:52:12;36.30;;;32.60;;
3633;SDS011;1833;42.718;23.270;2023-08-21T05:54:40;37.58;;;34.05;;
3633;SDS011;1833;42.718;23.270;2023-08-21T05:57:07;36.13;;;32.88;;
3633;SDS011;1833;42.718;23.270;2023-08-21T05:59:37;38.00;;;34.65;;
3633;SDS011;1833;42.718;23.270;2023-08-21T06:02:09;37.22;;;33.55;;
3633;SDS011;1833;42.718;23.270;2023-08-21T06:04:37;38.13;;;34.83;;
3633;SDS011;1833;42.718;23.270;2023-08-21T06:07:04;43.00;;;39.00;;
3633;SDS011;1833;42.718;23.270;2023-08-21T06:09:31;37.35;;;33.83;;
3633;SDS011;1833;42.718;23.270;2023-08-21T06:11:59;50.58;;;36.20;;
3633;SDS011;1833;42.718;23.270;2023-08-21T06:14:27;42.08;;;35.45;;
3633;SDS011;1833;42.718;23.270;2023-08-21T06:16:56;36.28;;;33.28;;
3633;SDS011;1833;42.718;23.270;2023-08-21T06:19:24;42.65;;;33.60;;
3633;SDS011;1833;42.718;23.270;2023-08-21T06:21:51;37.80;;;34.10;;
3633;SDS011;1833;42.718;23.270;2023-08-21T06:24:18;35.88;;;32.63;;
3633;SDS011;1833;42.718;23.270;2023-08-21T06:26:45;51.38;;;33.60;;
3633;SDS011;1833;42.718;23.270;2023-08-21T06:29:13;36.83;;;33.72;;
3633;SDS011;1833;42.718;23.270;2023-08-21T06:31:40;37.08;;;33.70;;
3633;SDS011;1833;42.718;23.270;2023-08-21T06:34:08;34.60;;;31.20;;
3633;SDS011;1833;42.718;23.270;2023-08-21T06:36:36;35.50;;;31.83;;
3633;SDS011;1833;42.718;23.270;2023-08-21T06:39:03;39.58;;;33.38;;
3633;SDS011;1833;42.718;23.270;2023-08-21T06:41:30;35.33;;;32.42;;
3633;SDS011;1833;42.718;23.270;2023-08-21T06:43:57;35.25;;;31.88;;
3633;SDS011;1833;42.718;23.270;2023-08-21T06:46:25;37.25;;;33.47;;
3633;SDS011;1833;42.718;23.270;2023-08-21T06:48:52;36.08;;;32.55;;
3633;SDS011;1833;42.718;23.270;2023-08-21T06:51:21;36.72;;;33.13;;
3633;SDS011;1833;42.718;23.270;2023-08-21T06:53:48;35.28;;;31.77;;
3633;SDS011;1833;42.718;23.270;2023-08-21T06:56:15;37.65;;;33.22;;
3633;SDS011;1833;42.718;23.270;2023-08-21T06:58:42;36.47;;;32.65;;
3633;SDS011;1833;42.718;23.270;2023-08-21T07:01:10;36.15;;;32.65;;
3633;SDS011;1833;42.718;23.270;2023-08-21T07:03:37;37.90;;;33.83;;
3633;SDS011;1833;42.718;23.270;2023-08-21T07:06:04;36.13;;;32.70;;
3633;SDS011;1833;42.718;23.270;2023-08-21T07:08:33;33.05;;;29.80;;
3633;SDS011;1833;42.718;23.270;2023-08-21T07:11:01;35.40;;;31.77;;
3633;SDS011;1833;42.718;23.270;2023-08-21T07:13:30;35.13;;;32.03;;
3633;SDS011;1833;42.718;23.270;2023-08-21T07:15:57;34.95;;;31.35;;
3633;SDS011;1833;42.718;23.270;2023-08-21T07:18:27;32.70;;;29.88;;
3633;SDS011;1833;42.718;23.270;2023-08-21T07:20:54;47.42;;;34.70;;
3633;SDS011;1833;42.718;23.270;2023-08-21T07:23:22;34.25;;;31.45;;
3633;SDS011;1833;42.718;23.270;2023-08-21T07:25:50;33.25;;;30.45;;
3633;SDS011;1833;42.718;23.270;2023-08-21T07:28:17;32.67;;;29.83;;
3633;SDS011;1833;42.718;23.270;2023-08-21T07:30:45;33.30;;;30.38;;
3633;SDS011;1833;42.718;23.270;2023-08-21T07:33:12;34.75;;;31.65;;
3633;SDS011;1833;42.718;23.270;2023-08-21T07:35:39;33.13;;;30.05;;
3633;SDS011;1833;42.718;23.270;2023-08-21T07:38:06;34.22;;;31.30;;
3633;SDS011;1833;42.718;23.270;2023-08-21T07:40:34;35.08;;;31.75;;
3633;SDS011;1833;42.718;23.270;2023-08-21T07:43:02;33.85;;;31.05;;
3633;SDS011;1833;42.718;23.270;2023-08-21T07:45:30;34.53;;;31.25;;
3633;SDS011;1833;42.718;23.270;2023-08-21T07:47:57;33.92;;;30.60;;
3633;SDS011;1833;42.718;23.270;2023-08-21T07:50:24;35.42;;;31.10;;
3633;SDS011;1833;42.718;23.270;2023-08-21T07:52:51;36.58;;;33.35;;
3633;SDS011;1833;42.718;23.270;2023-08-21T07:55:19;36.03;;;32.63;;
3633;SDS011;1833;42.718;23.270;2023-08-21T07:57:46;39.63;;;30.95;;
3633;SDS011;1833;42.718;23.270;2023-08-21T08:00:15;34.42;;;31.42;;
3633;SDS011;1833;42.718;23.270;2023-08-21T08:02:42;33.13;;;30.52;;
3633;SDS011;1833;42.718;23.270;2023-08-21T08:05:09;35.15;;;31.10;;
3633;SDS011;1833;42.718;23.270;2023-08-21T08:07:37;33.13;;;29.75;;
3633;SDS011;1833;42.718;23.270;2023-08-21T08:10:04;35.63;;;32.17;;
3633;SDS011;1833;42.718;23.270;2023-08-21T08:12:31;35.65;;;32.75;;
3633;SDS011;1833;42.718;23.270;2023-08-21T08:14:59;35.90;;;32.65;;
3633;SDS011;1833;42.718;23.270;2023-08-21T08:17:28;35.75;;;32.17;;
3633;SDS011;1833;42.718;23.270;2023-08-21T08:19:55;36.20;;;33.15;;
3633;SDS011;1833;42.718;23.270;2023-08-21T08:22:22;35.90;;;32.85;;
3633;SDS011;1833;42.718;23.270;2023-08-21T08:24:50;41.67;;;37.67;;
3633;SDS011;1833;42.718;23.270;2023-08-21T08:27:17;42.40;;;38.90;;
3633;SDS011;1833;42.718;23.270;2023-08-21T08:29:44;43.65;;;39.90;;
3633;SDS011;1833;42.718;23.270;2023-08-21T08:32:12;41.80;;;37.40;;
3633;SDS011;1833;42.718;23.270;2023-08-21T08:34:40;37.30;;;34.20;;
3633;SDS011;1833;42.718;23.270;2023-08-21T08:37:07;36.53;;;33.63;;
3633;SDS011;1833;42.718;23.270;2023-08-21T08:39:35;40.25;;;36.28;;
3633;SDS011;1833;42.718;23.270;2023-08-21T08:42:02;38.53;;;35.17;;
3633;SDS011;1833;42.718;23.270;2023-08-21T08:44:30;38.20;;;35.10;;
3633;SDS011;1833;42.718;23.270;2023-08-21T08:46:57;37.40;;;34.40;;
3633;SDS011;1833;42.718;23.270;2023-08-21T08:49:24;38.60;;;35.25;;
3633;SDS011;1833;42.718;23.270;2023-08-21T08:51:53;39.58;;;36.30;;
3633;SDS011;1833;42.718;23.270;2023-08-21T08:54:21;54.80;;;49.35;;
3633;SDS011;1833;42.718;23.270;2023-08-21T08:56:50;39.00;;;34.92;;
3633;SDS011;1833;42.718;23.270;2023-08-21T08:59:17;41.40;;;37.80;;
3633;SDS011;1833;42.718;23.270;2023-08-21T09:01:44;38.92;;;35.33;;
3633;SDS011;1833;42.718;23.270;2023-08-21T09:04:12;38.53;;;35.42;;
3633;SDS011;1833;42.718;23.270;2023-08-21T09:06:42;38.63;;;34.90;;
3633;SDS011;1833;42.718;23.270;2023-08-21T09:09:10;37.83;;;34.53;;
3633;SDS011;1833;42.718;23.270;2023-08-21T09:11:42;39.33;;;36.03;;
3633;SDS011;1833;42.718;23.270;2023-08-21T09:14:09;37.92;;;34.58;;
3633;SDS011;1833;42.718;23.270;2023-08-21T09:16:37;38.30;;;34.72;;
3633;SDS011;1833;42.718;23.270;2023-08-21T09:19:04;42.80;;;38.75;;
3633;SDS011;1833;42.718;23.270;2023-08-21T09:21:31;37.60;;;34.30;;
3633;SDS011;1833;42.718;23.270;2023-08-21T09:23:59;37.55;;;34.03;;
3633;SDS011;1833;42.718;23.270;2023-08-21T09:26:29;37.15;;;33.72;;
3633;SDS011;1833;42.718;23.270;2023-08-21T09:28:57;38.25;;;34.72;;
3633;SDS011;1833;42.718;23.270;2023-08-21T09:31:29;49.40;;;45.10;;
3633;SDS011;1833;42.718;23.270;2023-08-21T09:33:56;42.03;;;38.05;;
3633;SDS011;1833;42.718;23.270;2023-08-21T09:36:24;41.63;;;37.90;;
3633;SDS011;1833;42.718;23.270;2023-08-21T09:38:51;38.00;;;34.67;;
3633;SDS011;1833;42.718;23.270;2023-08-21T09:41:19;39.10;;;35.35;;
3633;SDS011;1833;42.718;23.270;2023-08-21T09:43:47;39.38;;;36.17;;
3633;SDS011;1833;42.718;23.270;2023-08-21T09:46:15;36.47;;;33.38;;
3633;SDS011;1833;42.718;23.270;2023-08-21T09:48:44;38.70;;;35.70;;
3633;SDS011;1833;42.718;23.270;2023-08-21T09:51:11;38.92;;;35.63;;
3633;SDS011;1833;42.718;23.270;2023-08-21T09:53:39;38.30;;;35.10;;
3633;SDS011;1833;42.718;23.270;2023-08-21T09:56:07;34.42;;;31.67;;
3633;SDS011;1833;42.718;23.270;2023-08-21T09:58:34;35.30;;;32.25;;
3633;SDS011;1833;42.718;23.270;2023-08-21T10:01:04;37.88;;;34.67;;
3633;SDS011;1833;42.718;23.270;2023-08-21T10:03:41;35.33;;;32.53;;
3633;SDS011;1833;42.718;23.270;2023-08-21T10:06:12;44.28;;;40.65;;
3633;SDS011;1833;42.718;23.270;2023-08-21T10:08:42;56.78;;;52.70;;
3633;SDS011;1833;42.718;23.270;2023-08-21T10:11:10;61.03;;;56.85;;
3633;SDS011;1833;42.718;23.270;2023-08-21T10:13:37;61.88;;;57.70;;
3633;SDS011;1833;42.718;23.270;2023-08-21T10:16:06;65.10;;;59.97;;
3633;SDS011;1833;42.718;23.270;2023-08-21T10:18:36;64.68;;;59.92;;
3633;SDS011;1833;42.718;23.270;2023-08-21T10:21:10;65.70;;;61.30;;
3633;SDS011;1833;42.718;23.270;2023-08-21T10:23:38;61.10;;;57.10;;
3633;SDS011;1833;42.718;23.270;2023-08-21T10:26:06;56.65;;;52.55;;
3633;SDS011;1833;42.718;23.270;2023-08-21T10:28:48;59.53;;;55.53;;
3633;SDS011;1833;42.718;23.270;2023-08-21T10:31:36;60.13;;;55.95;;
3633;SDS011;1833;42.718;23.270;2023-08-21T10:34:04;58.33;;;54.50;;
3633;SDS011;1833;42.718;23.270;2023-08-21T10:39:20;36.60;;;33.72;;
3633;SDS011;1833;42.718;23.270;2023-08-21T10:41:54;39.03;;;35.92;;
3633;SDS011;1833;42.718;23.270;2023-08-21T10:44:37;50.13;;;45.63;;
3633;SDS011;1833;42.718;23.270;2023-08-21T10:47:17;42.30;;;38.22;;
3633;SDS011;1833;42.718;23.270;2023-08-21T10:49:45;51.33;;;47.50;;
3633;SDS011;1833;42.718;23.270;2023-08-21T10:52:12;43.75;;;40.05;;
3633;SDS011;1833;42.718;23.270;2023-08-21T10:54:44;48.45;;;44.88;;
3633;SDS011;1833;42.718;23.270;2023-08-21T10:57:11;33.05;;;30.45;;
3633;SDS011;1833;42.718;23.270;2023-08-21T10:59:39;36.15;;;33.15;;
3633;SDS011;1833;42.718;23.270;2023-08-21T11:02:17;35.22;;;32.10;;
3633;SDS011;1833;42.718;23.270;2023-08-21T11:04:44;37.13;;;33.65;;
3633;SDS011;1833;42.718;23.270;2023-08-21T11:07:12;35.55;;;31.77;;
3633;SDS011;1833;42.718;23.270;2023-08-21T11:09:44;36.13;;;32.80;;
3633;SDS011;1833;42.718;23.270;2023-08-21T11:12:12;36.25;;;32.95;;
3633;SDS011;1833;42.718;23.270;2023-08-21T11:14:42;35.00;;;32.00;;
3633;SDS011;1833;42.718;23.270;2023-08-21T11:17:10;38.72;;;35.20;;
3633;SDS011;1833;42.718;23.270;2023-08-21T11:19:39;35.65;;;32.67;;
3633;SDS011;1833;42.718;23.270;2023-08-21T11:22:10;35.85;;;32.95;;
3633;SDS011;1833;42.718;23.270;2023-08-21T11:24:41;36.20;;;31.23;;
3633;SDS011;1833;42.718;23.270;2023-08-21T11:27:09;35.45;;;31.77;;
3633;SDS011;1833;42.718;23.270;2023-08-21T11:29:37;33.75;;;31.15;;
3633;SDS011;1833;42.718;23.270;2023-08-21T11:32:07;35.13;;;31.98;;
3633;SDS011;1833;42.718;23.270;2023-08-21T11:34:34;33.58;;;30.52;;
3633;SDS011;1833;42.718;23.270;2023-08-21T11:37:06;33.50;;;30.70;;
3633;SDS011;1833;42.718;23.270;2023-08-21T11:39:41;36.28;;;33.20;;
3633;SDS011;1833;42.718;23.270;2023-08-21T11:42:09;35.20;;;31.95;;
3633;SDS011;1833;42.718;23.270;2023-08-21T11:44:46;32.67;;;29.98;;
3633;SDS011;1833;42.718;23.270;2023-08-21T11:47:14;35.53;;;32.33;;
3633;SDS011;1833;42.718;23.270;2023-08-21T11:49:42;35.83;;;32.83;;
3633;SDS011;1833;42.718;23.270;2023-08-21T11:52:10;34.30;;;31.13;;
3633;SDS011;1833;42.718;23.270;2023-08-21T11:54:38;37.08;;;34.03;;
3633;SDS011;1833;42.718;23.270;2023-08-21T11:57:06;34.90;;;32.17;;
3633;SDS011;1833;42.718;23.270;2023-08-21T11:59:34;33.58;;;30.75;;
3633;SDS011;1833;42.718;23.270;2023-08-21T12:02:07;34.08;;;31.27;;
3633;SDS011;1833;42.718;23.270;2023-08-21T12:04:35;34.33;;;31.35;;
3633;SDS011;1833;42.718;23.270;2023-08-21T12:07:02;36.97;;;33.75;;
3633;SDS011;1833;42.718;23.270;2023-08-21T12:09:31;32.42;;;29.67;;
3633;SDS011;1833;42.718;23.270;2023-08-21T12:11:58;41.03;;;32.20;;
3633;SDS011;1833;42.718;23.270;2023-08-21T12:14:27;33.70;;;30.45;;
3633;SDS011;1833;42.718;23.270;2023-08-21T12:16:54;34.70;;;31.90;;
3633;SDS011;1833;42.718;23.270;2023-08-21T12:19:22;32.60;;;29.98;;
3633;SDS011;1833;42.718;23.270;2023-08-21T12:21:52;33.35;;;30.35;;
3633;SDS011;1833;42.718;23.270;2023-08-21T12:24:19;36.38;;;33.03;;
3633;SDS011;1833;42.718;23.270;2023-08-21T12:26:48;34.67;;;32.08;;
3633;SDS011;1833;42.718;23.270;2023-08-21T12:29:15;34.22;;;31.40;;
3633;SDS011;1833;42.718;23.270;2023-08-21T12:31:42;34.47;;;31.48;;
3633;SDS011;1833;42.718;23.270;2023-08-21T12:34:10;33.95;;;31.15;;
3633;SDS011;1833;42.718;23.270;2023-08-21T12:36:37;33.80;;;30.88;;
3633;SDS011;1833;42.718;23.270;2023-08-21T12:39:05;33.55;;;30.65;;
3633;SDS011;1833;42.718;23.270;2023-08-21T12:41:32;33.50;;;30.65;;
3633;SDS011;1833;42.718;23.270;2023-08-21T12:44:01;40.35;;;31.60;;
3633;SDS011;1833;42.718;23.270;2023-08-21T12:46:29;35.20;;;31.88;;
3633;SDS011;1833;42.718;23.270;2023-08-21T12:48:56;34.67;;;31.67;;
3633;SDS011;1833;42.718;23.270;2023-08-21T12:51:24;35.28;;;31.83;;
3633;SDS011;1833;42.718;23.270;2023-08-21T12:53:51;35.25;;;31.85;;
3633;SDS011;1833;42.718;23.270;2023-08-21T12:56:18;37.05;;;33.63;;
3633;SDS011;1833;42.718;23.270;2023-08-21T12:58:46;32.67;;;29.92;;
3633;SDS011;1833;42.718;23.270;2023-08-21T13:01:14;37.47;;;34.25;;
3633;SDS011;1833;42.718;23.270;2023-08-21T13:03:43;38.25;;;34.55;;
3633;SDS011;1833;42.718;23.270;2023-08-21T13:06:11;37.17;;;33.92;;
3633;SDS011;1833;42.718;23.270;2023-08-21T13:08:39;38.50;;;34.83;;
3633;SDS011;1833;42.718;23.270;2023-08-21T13:11:06;38.05;;;34.65;;
3633;SDS011;1833;42.718;23.270;2023-08-21T13:13:35;41.83;;;37.67;;
3633;SDS011;1833;42.718;23.270;2023-08-21T13:16:02;34.10;;;30.98;;
3633;SDS011;1833;42.718;23.270;2023-08-21T13:18:31;36.78;;;33.05;;
3633;SDS011;1833;42.718;23.270;2023-08-21T13:21:00;36.78;;;33.78;;
3633;SDS011;1833;42.718;23.270;2023-08-21T13:23:28;35.35;;;32.22;;
3633;SDS011;1833;42.718;23.270;2023-08-21T13:25:59;36.80;;;33.80;;
3633;SDS011;1833;42.718;23.270;2023-08-21T13:28:26;35.45;;;32.25;;
3633;SDS011;1833;42.718;23.270;2023-08-21T13:30:54;36.00;;;32.63;;
3633;SDS011;1833;42.718;23.270;2023-08-21T13:33:21;36.03;;;32.47;;
3633;SDS011;1833;42.718;23.270;2023-08-21T13:35:50;36.17;;;33.00;;
3633;SDS011;1833;42.718;23.270;2023-08-21T13:38:17;35.50;;;32.50;;
3633;SDS011;1833;42.718;23.270;2023-08-21T13:40:44;34.88;;;32.08;;
3633;SDS011;1833;42.718;23.270;2023-08-21T13:43:11;37.05;;;33.72;;
3633;SDS011;1833;42.718;23.270;2023-08-21T13:45:39;37.85;;;34.58;;
3633;SDS011;1833;42.718;23.270;2023-08-21T13:48:06;35.90;;;32.90;;
3633;SDS011;1833;42.718;23.270;2023-08-21T13:50:33;35.92;;;32.67;;
3633;SDS011;1833;42.718;23.270;2023-08-21T13:53:02;36.88;;;33.70;;
3633;SDS011;1833;42.718;23.270;2023-08-21T13:55:29;38.15;;;34.50;;
3633;SDS011;1833;42.718;23.270;2023-08-21T13:57:56;37.22;;;33.83;;
3633;SDS011;1833;42.718;23.270;2023-08-21T14:00:23;37.67;;;34.63;;
3633;SDS011;1833;42.718;23.270;2023-08-21T14:02:51;34.85;;;31.98;;
3633;SDS011;1833;42.718;23.270;2023-08-21T14:05:18;38.08;;;34.97;;
3633;SDS011;1833;42.718;23.270;2023-08-21T14:07:45;35.28;;;32.67;;
3633;SDS011;1833;42.718;23.270;2023-08-21T14:10:14;37.72;;;34.83;;
3633;SDS011;1833;42.718;23.270;2023-08-21T14:12:41;36.20;;;33.33;;
3633;SDS011;1833;42.718;23.270;2023-08-21T14:15:09;41.95;;;38.45;;
3633;SDS011;1833;42.718;23.270;2023-08-21T14:17:36;39.55;;;36.03;;
3633;SDS011;1833;42.718;23.270;2023-08-21T14:20:04;38.08;;;34.97;;
3633;SDS011;1833;42.718;23.270;2023-08-21T14:22:33;35.72;;;32.50;;
3633;SDS011;1833;42.718;23.270;2023-08-21T14:25:00;37.38;;;34.28;;
3633;SDS011;1833;42.718;23.270;2023-08-21T14:27:29;36.08;;;33.03;;
3633;SDS011;1833;42.718;23.270;2023-08-21T14:29:56;33.67;;;31.02;;
3633;SDS011;1833;42.718;23.270;2023-08-21T14:32:24;37.08;;;33.80;;
3633;SDS011;1833;42.718;23.270;2023-08-21T14:34:51;34.30;;;31.60;;
3633;SDS011;1833;42.718;23.270;2023-08-21T14:37:19;35.42;;;32.33;;
3633;SDS011;1833;42.718;23.270;2023-08-21T14:39:46;36.15;;;33.08;;
3633;SDS011;1833;42.718;23.270;2023-08-21T14:42:14;38.10;;;34.55;;